sensor_id;sensor_type;location;lat;lon;timestamp;P1;durP1;ratioP1;P2;durP2;ratioP2
22160;SDS011;49035;48.812;11.762;2023-07-30T00:02:02;9.02;;;6.00;;
22160;SDS011;49035;48.812;11.762;2023-07-30T00:04:28;7.75;;;5.57;;
22160;SDS011;49035;48.812;11.762;2023-07-30T00:06:53;8.30;;;5.55;;
22160;SDS011;49035;48.812;11.762;2023-07-30T00:09:19;9.38;;;5.95;;
22160;SDS011;49035;48.812;11.762;2023-07-30T00:11:44;6.30;;;5.32;;
22160;SDS011;49035;48.812;11.762;2023-07-30T00:14:10;8.18;;;5.25;;
22160;SDS011;49035;48.812;11.762;2023-07-30T00:16:35;8.45;;;5.25;;
22160;SDS011;49035;48.812;11.762;2023-07-30T00:19:01;7.50;;;4.97;;
22160;SDS011;49035;48.812;11.762;2023-07-30T00:21:27;6.00;;;5.20;;
22160;SDS011;49035;48.812;11.762;2023-07-30T00:23:52;6.78;;;5.75;;
22160;SDS011;49035;48.812;11.762;2023-07-30T00:26:18;6.47;;;5.20;;
22160;SDS011;49035;48.812;11.762;2023-07-30T00:28:43;7.43;;;5.38;;
22160;SDS011;49035;48.812;11.762;2023-07-30T00:31:09;8.52;;;6.20;;
22160;SDS011;49035;48.812;11.762;2023-07-30T00:33:34;8.15;;;5.43;;
22160;SDS011;49035;48.812;11.762;2023-07-30T00:36:00;8.60;;;6.10;;
22160;SDS011;49035;48.812;11.762;2023-07-30T00:38:26;7.70;;;5.93;;
22160;SDS011;49035;48.812;11.762;2023-07-30T00:40:51;8.82;;;5.95;;
22160;SDS011;49035;48.812;11.762;2023-07-30T00:43:17;7.40;;;5.75;;
22160;SDS011;49035;48.812;11.762;2023-07-30T00:45:43;9.43;;;5.53;;
22160;SDS011;49035;48.812;11.762;2023-07-30T00:48:10;7.68;;;5.55;;
22160;SDS011;49035;48.812;11.762;2023-07-30T00:50:38;5.97;;;5.38;;
22160;SDS011;49035;48.812;11.762;2023-07-30T00:53:05;7.85;;;5.75;;
22160;SDS011;49035;48.812;11.762;2023-07-30T00:55:32;7.85;;;5.70;;
22160;SDS011;49035;48.812;11.762;2023-07-30T00:57:57;13.75;;;5.18;;
22160;SDS011;49035;48.812;11.762;2023-07-30T01:00:24;7.43;;;5.45;;
22160;SDS011;49035;48.812;11.762;2023-07-30T01:02:50;8.63;;;5.22;;
22160;SDS011;49035;48.812;11.762;2023-07-30T01:05:16;5.65;;;4.93;;
22160;SDS011;49035;48.812;11.762;2023-07-30T01:07:42;6.25;;;4.97;;
22160;SDS011;49035;48.812;11.762;2023-07-30T01:10:08;7.20;;;4.93;;
22160;SDS011;49035;48.812;11.762;2023-07-30T01:12:34;10.63;;;5.10;;
22160;SDS011;49035;48.812;11.762;2023-07-30T01:15:00;8.43;;;4.88;;
22160;SDS011;49035;48.812;11.762;2023-07-30T01:17:27;8.88;;;4.82;;
22160;SDS011;49035;48.812;11.762;2023-07-30T01:19:53;6.40;;;4.60;;
22160;SDS011;49035;48.812;11.762;2023-07-30T01:22:22;7.28;;;4.30;;
22160;SDS011;49035;48.812;11.762;2023-07-30T01:24:48;7.38;;;4.57;;
22160;SDS011;49035;48.812;11.762;2023-07-30T01:27:16;5.68;;;4.20;;
22160;SDS011;49035;48.812;11.762;2023-07-30T01:30:09;5.38;;;4.22;;
22160;SDS011;49035;48.812;11.762;2023-07-30T01:32:49;9.02;;;4.82;;
22160;SDS011;49035;48.812;11.762;2023-07-30T01:35:18;6.28;;;4.22;;
22160;SDS011;49035;48.812;11.762;2023-07-30T01:37:47;6.45;;;4.32;;
22160;SDS011;49035;48.812;11.762;2023-07-30T01:40:13;6.53;;;4.43;;
22160;SDS011;49035;48.812;11.762;2023-07-30T01:42:42;5.15;;;4.15;;
22160;SDS011;49035;48.812;11.762;2023-07-30T01:45:07;5.78;;;4.40;;
22160;SDS011;49035;48.812;11.762;2023-07-30T01:47:33;5.55;;;4.57;;
22160;SDS011;49035;48.812;11.762;2023-07-30T01:49:59;6.63;;;4.28;;
22160;SDS011;49035;48.812;11.762;2023-07-30T01:52:25;4.70;;;4.25;;
22160;SDS011;49035;48.812;11.762;2023-07-30T01:54:50;6.10;;;4.18;;
22160;SDS011;49035;48.812;11.762;2023-07-30T01:57:16;6.28;;;4.85;;
22160;SDS011;49035;48.812;11.762;2023-07-30T01:59:41;7.70;;;4.70;;
22160;SDS011;49035;48.812;11.762;2023-07-30T02:02:07;6.53;;;4.35;;
22160;SDS011;49035;48.812;11.762;2023-07-30T02:04:33;9.15;;;4.95;;
22160;SDS011;49035;48.812;11.762;2023-07-30T02:06:58;6.85;;;4.88;;
22160;SDS011;49035;48.812;11.762;2023-07-30T02:09:24;11.85;;;4.80;;
22160;SDS011;49035;48.812;11.762;2023-07-30T02:11:50;10.05;;;4.57;;
22160;SDS011;49035;48.812;11.762;2023-07-30T02:14:17;12.20;;;4.10;;
22160;SDS011;49035;48.812;11.762;2023-07-30T02:16:43;7.18;;;3.40;;
22160;SDS011;49035;48.812;11.762;2023-07-30T02:19:09;4.78;;;3.00;;
22160;SDS011;49035;48.812;11.762;2023-07-30T02:21:34;6.82;;;2.25;;
22160;SDS011;49035;48.812;11.762;2023-07-30T02:24:02;3.13;;;2.47;;
22160;SDS011;49035;48.812;11.762;2023-07-30T02:26:27;2.45;;;1.70;;
22160;SDS011;49035;48.812;11.762;2023-07-30T02:28:53;2.33;;;1.65;;
22160;SDS011;49035;48.812;11.762;2023-07-30T02:31:19;3.20;;;1.95;;
22160;SDS011;49035;48.812;11.762;2023-07-30T02:33:44;5.22;;;1.83;;
22160;SDS011;49035;48.812;11.762;2023-07-30T02:36:10;2.72;;;1.65;;
22160;SDS011;49035;48.812;11.762;2023-07-30T02:38:35;2.03;;;1.63;;
22160;SDS011;49035;48.812;11.762;2023-07-30T02:41:01;2.83;;;1.75;;
22160;SDS011;49035;48.812;11.762;2023-07-30T02:43:26;2.17;;;1.60;;
22160;SDS011;49035;48.812;11.762;2023-07-30T02:45:52;5.32;;;1.63;;
22160;SDS011;49035;48.812;11.762;2023-07-30T02:48:17;2.10;;;1.50;;
22160;SDS011;49035;48.812;11.762;2023-07-30T02:50:43;2.40;;;1.58;;
22160;SDS011;49035;48.812;11.762;2023-07-30T02:53:09;2.55;;;1.70;;
22160;SDS011;49035;48.812;11.762;2023-07-30T02:55:35;4.43;;;1.42;;
22160;SDS011;49035;48.812;11.762;2023-07-30T02:58:00;5.82;;;1.45;;
22160;SDS011;49035;48.812;11.762;2023-07-30T03:00:26;1.67;;;1.30;;
22160;SDS011;49035;48.812;11.762;2023-07-30T03:02:51;6.45;;;1.00;;
22160;SDS011;49035;48.812;11.762;2023-07-30T03:05:17;3.10;;;1.10;;
22160;SDS011;49035;48.812;11.762;2023-07-30T03:07:42;4.78;;;1.38;;
22160;SDS011;49035;48.812;11.762;2023-07-30T03:10:08;2.50;;;1.25;;
22160;SDS011;49035;48.812;11.762;2023-07-30T03:12:34;2.13;;;1.20;;
22160;SDS011;49035;48.812;11.762;2023-07-30T03:14:59;1.58;;;1.08;;
22160;SDS011;49035;48.812;11.762;2023-07-30T03:17:25;2.70;;;1.20;;
22160;SDS011;49035;48.812;11.762;2023-07-30T03:19:51;1.30;;;1.10;;
22160;SDS011;49035;48.812;11.762;2023-07-30T03:22:16;1.65;;;1.00;;
22160;SDS011;49035;48.812;11.762;2023-07-30T03:24:42;1.67;;;1.40;;
22160;SDS011;49035;48.812;11.762;2023-07-30T03:27:11;5.53;;;1.25;;
22160;SDS011;49035;48.812;11.762;2023-07-30T03:29:36;1.88;;;1.20;;
22160;SDS011;49035;48.812;11.762;2023-07-30T03:32:02;3.38;;;1.38;;
22160;SDS011;49035;48.812;11.762;2023-07-30T03:34:27;2.78;;;1.08;;
22160;SDS011;49035;48.812;11.762;2023-07-30T03:36:53;5.18;;;1.75;;
22160;SDS011;49035;48.812;11.762;2023-07-30T03:39:18;4.90;;;1.38;;
22160;SDS011;49035;48.812;11.762;2023-07-30T03:41:44;2.83;;;1.20;;
22160;SDS011;49035;48.812;11.762;2023-07-30T03:44:09;2.20;;;1.20;;
22160;SDS011;49035;48.812;11.762;2023-07-30T03:46:35;4.40;;;1.35;;
22160;SDS011;49035;48.812;11.762;2023-07-30T03:49:01;2.80;;;1.30;;
22160;SDS011;49035;48.812;11.762;2023-07-30T03:51:26;5.35;;;1.65;;
22160;SDS011;49035;48.812;11.762;2023-07-30T03:53:52;3.40;;;1.90;;
22160;SDS011;49035;48.812;11.762;2023-07-30T03:56:18;3.95;;;1.70;;
22160;SDS011;49035;48.812;11.762;2023-07-30T03:58:43;3.65;;;1.55;;
22160;SDS011;49035;48.812;11.762;2023-07-30T04:01:09;5.13;;;1.67;;
22160;SDS011;49035;48.812;11.762;2023-07-30T04:03:34;3.58;;;1.70;;
22160;SDS011;49035;48.812;11.762;2023-07-30T04:06:00;1.85;;;1.52;;
22160;SDS011;49035;48.812;11.762;2023-07-30T04:08:26;1.80;;;1.42;;
22160;SDS011;49035;48.812;11.762;2023-07-30T04:10:51;2.10;;;1.90;;
22160;SDS011;49035;48.812;11.762;2023-07-30T04:13:17;4.50;;;1.85;;
22160;SDS011;49035;48.812;11.762;2023-07-30T04:15:42;4.30;;;1.98;;
22160;SDS011;49035;48.812;11.762;2023-07-30T04:18:08;3.75;;;2.00;;
22160;SDS011;49035;48.812;11.762;2023-07-30T04:20:33;4.50;;;1.55;;
22160;SDS011;49035;48.812;11.762;2023-07-30T04:22:59;3.63;;;1.55;;
22160;SDS011;49035;48.812;11.762;2023-07-30T04:25:25;2.47;;;1.70;;
22160;SDS011;49035;48.812;11.762;2023-07-30T04:27:50;2.53;;;1.80;;
22160;SDS011;49035;48.812;11.762;2023-07-30T04:30:16;3.38;;;1.75;;
22160;SDS011;49035;48.812;11.762;2023-07-30T04:32:41;4.30;;;2.05;;
22160;SDS011;49035;48.812;11.762;2023-07-30T04:35:07;2.50;;;1.75;;
22160;SDS011;49035;48.812;11.762;2023-07-30T04:37:33;3.47;;;2.03;;
22160;SDS011;49035;48.812;11.762;2023-07-30T04:39:58;2.55;;;2.17;;
22160;SDS011;49035;48.812;11.762;2023-07-30T04:42:24;3.45;;;2.55;;
22160;SDS011;49035;48.812;11.762;2023-07-30T04:44:49;2.63;;;1.88;;
22160;SDS011;49035;48.812;11.762;2023-07-30T04:47:15;2.33;;;1.90;;
22160;SDS011;49035;48.812;11.762;2023-07-30T04:49:41;5.63;;;2.08;;
22160;SDS011;49035;48.812;11.762;2023-07-30T04:52:07;3.05;;;2.10;;
22160;SDS011;49035;48.812;11.762;2023-07-30T04:54:33;2.78;;;1.95;;
22160;SDS011;49035;48.812;11.762;2023-07-30T04:57:00;2.95;;;2.20;;
22160;SDS011;49035;48.812;11.762;2023-07-30T04:59:26;3.20;;;2.13;;
22160;SDS011;49035;48.812;11.762;2023-07-30T05:01:52;3.53;;;2.35;;
22160;SDS011;49035;48.812;11.762;2023-07-30T05:04:17;3.50;;;2.55;;
22160;SDS011;49035;48.812;11.762;2023-07-30T05:06:43;4.00;;;2.17;;
22160;SDS011;49035;48.812;11.762;2023-07-30T05:09:08;2.70;;;2.00;;
22160;SDS011;49035;48.812;11.762;2023-07-30T05:11:36;2.60;;;1.90;;
22160;SDS011;49035;48.812;11.762;2023-07-30T05:14:02;4.45;;;2.15;;
22160;SDS011;49035;48.812;11.762;2023-07-30T05:16:28;5.32;;;2.00;;
22160;SDS011;49035;48.812;11.762;2023-07-30T05:18:53;3.25;;;2.50;;
22160;SDS011;49035;48.812;11.762;2023-07-30T05:21:19;2.60;;;2.13;;
22160;SDS011;49035;48.812;11.762;2023-07-30T05:23:44;3.15;;;2.50;;
22160;SDS011;49035;48.812;11.762;2023-07-30T05:26:10;3.90;;;2.65;;
22160;SDS011;49035;48.812;11.762;2023-07-30T05:28:35;3.67;;;2.28;;
22160;SDS011;49035;48.812;11.762;2023-07-30T05:31:01;5.28;;;2.88;;
22160;SDS011;49035;48.812;11.762;2023-07-30T05:33:26;3.67;;;2.55;;
22160;SDS011;49035;48.812;11.762;2023-07-30T05:35:52;4.45;;;2.97;;
22160;SDS011;49035;48.812;11.762;2023-07-30T05:38:18;4.13;;;2.90;;
22160;SDS011;49035;48.812;11.762;2023-07-30T05:40:43;4.97;;;3.33;;
22160;SDS011;49035;48.812;11.762;2023-07-30T05:43:09;3.42;;;2.47;;
22160;SDS011;49035;48.812;11.762;2023-07-30T05:45:34;5.97;;;2.97;;
22160;SDS011;49035;48.812;11.762;2023-07-30T05:48:00;4.53;;;3.50;;
22160;SDS011;49035;48.812;11.762;2023-07-30T05:50:25;6.65;;;2.70;;
22160;SDS011;49035;48.812;11.762;2023-07-30T05:52:51;3.67;;;2.58;;
22160;SDS011;49035;48.812;11.762;2023-07-30T05:55:17;2.42;;;2.22;;
22160;SDS011;49035;48.812;11.762;2023-07-30T05:57:42;3.92;;;2.50;;
22160;SDS011;49035;48.812;11.762;2023-07-30T06:00:08;3.28;;;2.47;;
22160;SDS011;49035;48.812;11.762;2023-07-30T06:02:34;5.72;;;2.38;;
22160;SDS011;49035;48.812;11.762;2023-07-30T06:05:00;2.92;;;2.45;;
22160;SDS011;49035;48.812;11.762;2023-07-30T06:07:25;3.63;;;2.92;;
22160;SDS011;49035;48.812;11.762;2023-07-30T06:09:51;3.03;;;2.40;;
22160;SDS011;49035;48.812;11.762;2023-07-30T06:12:16;3.97;;;2.33;;
22160;SDS011;49035;48.812;11.762;2023-07-30T06:14:42;3.15;;;2.85;;
22160;SDS011;49035;48.812;11.762;2023-07-30T06:17:07;15.55;;;3.38;;
22160;SDS011;49035;48.812;11.762;2023-07-30T06:19:33;5.07;;;2.50;;
22160;SDS011;49035;48.812;11.762;2023-07-30T06:21:59;4.03;;;2.70;;
22160;SDS011;49035;48.812;11.762;2023-07-30T06:24:25;3.33;;;2.58;;
22160;SDS011;49035;48.812;11.762;2023-07-30T06:26:50;2.50;;;2.20;;
22160;SDS011;49035;48.812;11.762;2023-07-30T06:29:16;4.30;;;2.60;;
22160;SDS011;49035;48.812;11.762;2023-07-30T06:31:42;3.40;;;2.28;;
22160;SDS011;49035;48.812;11.762;2023-07-30T06:34:07;3.72;;;2.03;;
22160;SDS011;49035;48.812;11.762;2023-07-30T06:36:33;4.07;;;2.35;;
22160;SDS011;49035;48.812;11.762;2023-07-30T06:38:59;2.45;;;1.80;;
22160;SDS011;49035;48.812;11.762;2023-07-30T06:41:24;2.85;;;2.17;;
22160;SDS011;49035;48.812;11.762;2023-07-30T06:43:50;2.35;;;2.15;;
22160;SDS011;49035;48.812;11.762;2023-07-30T06:46:15;3.47;;;2.45;;
22160;SDS011;49035;48.812;11.762;2023-07-30T06:48:41;2.55;;;1.63;;
22160;SDS011;49035;48.812;11.762;2023-07-30T06:51:06;3.00;;;2.13;;
22160;SDS011;49035;48.812;11.762;2023-07-30T06:53:34;3.03;;;1.95;;
22160;SDS011;49035;48.812;11.762;2023-07-30T06:56:00;3.28;;;2.58;;
22160;SDS011;49035;48.812;11.762;2023-07-30T06:58:25;2.60;;;2.38;;
22160;SDS011;49035;48.812;11.762;2023-07-30T07:00:51;2.97;;;2.50;;
22160;SDS011;49035;48.812;11.762;2023-07-30T07:03:17;3.05;;;2.58;;
22160;SDS011;49035;48.812;11.762;2023-07-30T07:05:42;3.35;;;3.05;;
22160;SDS011;49035;48.812;11.762;2023-07-30T07:08:08;3.75;;;3.13;;
22160;SDS011;49035;48.812;11.762;2023-07-30T07:10:34;4.47;;;3.30;;
22160;SDS011;49035;48.812;11.762;2023-07-30T07:12:59;9.88;;;3.30;;
22160;SDS011;49035;48.812;11.762;2023-07-30T07:15:25;3.55;;;2.95;;
22160;SDS011;49035;48.812;11.762;2023-07-30T07:17:50;4.72;;;3.05;;
22160;SDS011;49035;48.812;11.762;2023-07-30T07:20:16;4.35;;;3.30;;
22160;SDS011;49035;48.812;11.762;2023-07-30T07:22:43;5.43;;;3.65;;
22160;SDS011;49035;48.812;11.762;2023-07-30T07:25:08;4.03;;;3.22;;
22160;SDS011;49035;48.812;11.762;2023-07-30T07:27:34;5.30;;;3.65;;
22160;SDS011;49035;48.812;11.762;2023-07-30T07:29:59;5.20;;;3.10;;
22160;SDS011;49035;48.812;11.762;2023-07-30T07:32:25;5.45;;;2.92;;
22160;SDS011;49035;48.812;11.762;2023-07-30T07:34:51;3.50;;;3.20;;
22160;SDS011;49035;48.812;11.762;2023-07-30T07:37:16;3.53;;;2.90;;
22160;SDS011;49035;48.812;11.762;2023-07-30T07:39:43;3.30;;;2.97;;
22160;SDS011;49035;48.812;11.762;2023-07-30T07:42:12;3.22;;;2.65;;
22160;SDS011;49035;48.812;11.762;2023-07-30T07:44:37;3.65;;;2.90;;
22160;SDS011;49035;48.812;11.762;2023-07-30T07:47:03;5.63;;;3.33;;
22160;SDS011;49035;48.812;11.762;2023-07-30T07:49:29;3.67;;;3.38;;
22160;SDS011;49035;48.812;11.762;2023-07-30T07:51:55;6.47;;;2.97;;
22160;SDS011;49035;48.812;11.762;2023-07-30T07:54:20;3.15;;;2.85;;
22160;SDS011;49035;48.812;11.762;2023-07-30T07:56:46;4.38;;;2.80;;
22160;SDS011;49035;48.812;11.762;2023-07-30T07:59:11;3.08;;;2.63;;
22160;SDS011;49035;48.812;11.762;2023-07-30T08:01:37;3.85;;;3.03;;
22160;SDS011;49035;48.812;11.762;2023-07-30T08:04:02;4.22;;;2.85;;
22160;SDS011;49035;48.812;11.762;2023-07-30T08:06:28;3.90;;;3.60;;
22160;SDS011;49035;48.812;11.762;2023-07-30T08:08:54;3.83;;;3.53;;
22160;SDS011;49035;48.812;11.762;2023-07-30T08:11:20;4.80;;;3.60;;
22160;SDS011;49035;48.812;11.762;2023-07-30T08:13:45;7.43;;;3.80;;
22160;SDS011;49035;48.812;11.762;2023-07-30T08:16:11;3.40;;;3.10;;
22160;SDS011;49035;48.812;11.762;2023-07-30T08:18:37;4.45;;;3.60;;
22160;SDS011;49035;48.812;11.762;2023-07-30T08:21:02;3.65;;;3.30;;
22160;SDS011;49035;48.812;11.762;2023-07-30T08:23:28;5.45;;;3.05;;
22160;SDS011;49035;48.812;11.762;2023-07-30T08:25:54;4.45;;;2.45;;
22160;SDS011;49035;48.812;11.762;2023-07-30T08:28:19;4.30;;;2.55;;
22160;SDS011;49035;48.812;11.762;2023-07-30T08:30:45;2.65;;;2.45;;
22160;SDS011;49035;48.812;11.762;2023-07-30T08:33:11;3.88;;;2.30;;
22160;SDS011;49035;48.812;11.762;2023-07-30T08:35:36;4.05;;;2.60;;
22160;SDS011;49035;48.812;11.762;2023-07-30T08:38:02;3.42;;;2.08;;
22160;SDS011;49035;48.812;11.762;2023-07-30T08:40:27;2.53;;;2.33;;
22160;SDS011;49035;48.812;11.762;2023-07-30T08:42:53;3.03;;;2.30;;
22160;SDS011;49035;48.812;11.762;2023-07-30T08:45:19;3.78;;;2.30;;
22160;SDS011;49035;48.812;11.762;2023-07-30T08:47:45;2.13;;;1.77;;
22160;SDS011;49035;48.812;11.762;2023-07-30T08:50:12;4.10;;;1.98;;
22160;SDS011;49035;48.812;11.762;2023-07-30T08:52:38;4.28;;;1.90;;
22160;SDS011;49035;48.812;11.762;2023-07-30T08:55:04;5.55;;;2.22;;
22160;SDS011;49035;48.812;11.762;2023-07-30T08:57:31;2.72;;;2.40;;
22160;SDS011;49035;48.812;11.762;2023-07-30T09:00:04;2.50;;;2.30;;
22160;SDS011;49035;48.812;11.762;2023-07-30T09:02:55;2.50;;;2.30;;
22160;SDS011;49035;48.812;11.762;2023-07-30T09:05:21;3.10;;;2.25;;
22160;SDS011;49035;48.812;11.762;2023-07-30T09:07:47;2.50;;;2.30;;
22160;SDS011;49035;48.812;11.762;2023-07-30T09:10:14;2.42;;;2.17;;
22160;SDS011;49035;48.812;11.762;2023-07-30T09:12:40;3.63;;;2.10;;
22160;SDS011;49035;48.812;11.762;2023-07-30T09:15:06;4.90;;;2.38;;
22160;SDS011;49035;48.812;11.762;2023-07-30T09:17:32;2.58;;;1.90;;
22160;SDS011;49035;48.812;11.762;2023-07-30T09:19:59;7.80;;;2.03;;
22160;SDS011;49035;48.812;11.762;2023-07-30T09:22:26;2.80;;;2.28;;
22160;SDS011;49035;48.812;11.762;2023-07-30T09:24:56;2.00;;;1.80;;
22160;SDS011;49035;48.812;11.762;2023-07-30T09:27:24;2.63;;;2.03;;
22160;SDS011;49035;48.812;11.762;2023-07-30T09:32:25;2.80;;;2.35;;
22160;SDS011;49035;48.812;11.762;2023-07-30T09:34:52;3.03;;;2.33;;
22160;SDS011;49035;48.812;11.762;2023-07-30T09:37:17;6.57;;;2.40;;
22160;SDS011;49035;48.812;11.762;2023-07-30T09:39:43;4.18;;;2.53;;
22160;SDS011;49035;48.812;11.762;2023-07-30T09:42:08;3.25;;;2.20;;
22160;SDS011;49035;48.812;11.762;2023-07-30T09:44:35;4.38;;;2.63;;
22160;SDS011;49035;48.812;11.762;2023-07-30T09:47:03;2.38;;;2.17;;
22160;SDS011;49035;48.812;11.762;2023-07-30T09:49:30;2.20;;;2.00;;
22160;SDS011;49035;48.812;11.762;2023-07-30T09:51:57;2.53;;;2.33;;
22160;SDS011;49035;48.812;11.762;2023-07-30T09:54:23;2.00;;;1.83;;
22160;SDS011;49035;48.812;11.762;2023-07-30T09:56:49;2.25;;;1.70;;
22160;SDS011;49035;48.812;11.762;2023-07-30T09:59:14;2.95;;;1.80;;
22160;SDS011;49035;48.812;11.762;2023-07-30T10:01:46;3.63;;;1.85;;
22160;SDS011;49035;48.812;11.762;2023-07-30T10:04:18;2.35;;;1.85;;
22160;SDS011;49035;48.812;11.762;2023-07-30T10:06:50;1.58;;;1.48;;
22160;SDS011;49035;48.812;11.762;2023-07-30T10:09:20;2.42;;;1.42;;
22160;SDS011;49035;48.812;11.762;2023-07-30T10:11:48;1.70;;;1.60;;
22160;SDS011;49035;48.812;11.762;2023-07-30T10:14:16;1.88;;;1.40;;
22160;SDS011;49035;48.812;11.762;2023-07-30T10:16:51;5.95;;;1.58;;
22160;SDS011;49035;48.812;11.762;2023-07-30T10:19:21;3.50;;;1.30;;
22160;SDS011;49035;48.812;11.762;2023-07-30T10:21:51;2.28;;;1.38;;
22160;SDS011;49035;48.812;11.762;2023-07-30T10:24:18;2.38;;;1.48;;
22160;SDS011;49035;48.812;11.762;2023-07-30T10:26:44;2.00;;;1.75;;
22160;SDS011;49035;48.812;11.762;2023-07-30T10:29:13;2.28;;;1.52;;
22160;SDS011;49035;48.812;11.762;2023-07-30T10:31:54;1.60;;;1.50;;
22160;SDS011;49035;48.812;11.762;2023-07-30T10:34:20;3.53;;;1.48;;
22160;SDS011;49035;48.812;11.762;2023-07-30T10:36:48;4.53;;;1.63;;
22160;SDS011;49035;48.812;11.762;2023-07-30T10:39:16;2.65;;;1.60;;
22160;SDS011;49035;48.812;11.762;2023-07-30T10:41:49;3.22;;;1.63;;
22160;SDS011;49035;48.812;11.762;2023-07-30T10:44:31;2.58;;;1.40;;
22160;SDS011;49035;48.812;11.762;2023-07-30T10:46:59;1.52;;;1.30;;
22160;SDS011;49035;48.812;11.762;2023-07-30T10:49:25;1.75;;;1.30;;
22160;SDS011;49035;48.812;11.762;2023-07-30T10:51:51;2.63;;;1.30;;
22160;SDS011;49035;48.812;11.762;2023-07-30T10:54:18;1.58;;;1.40;;
22160;SDS011;49035;48.812;11.762;2023-07-30T10:56:44;1.88;;;1.67;;
22160;SDS011;49035;48.812;11.762;2023-07-30T10:59:11;3.25;;;1.33;;
22160;SDS011;49035;48.812;11.762;2023-07-30T11:01:41;2.22;;;1.75;;
22160;SDS011;49035;48.812;11.762;2023-07-30T11:06:44;1.80;;;1.50;;
22160;SDS011;49035;48.812;11.762;2023-07-30T11:09:18;2.10;;;1.50;;
22160;SDS011;49035;48.812;11.762;2023-07-30T11:11:44;2.33;;;1.70;;
22160;SDS011;49035;48.812;11.762;2023-07-30T11:14:14;2.85;;;1.40;;
22160;SDS011;49035;48.812;11.762;2023-07-30T11:16:48;1.65;;;1.52;;
22160;SDS011;49035;48.812;11.762;2023-07-30T11:19:15;2.95;;;1.30;;
22160;SDS011;49035;48.812;11.762;2023-07-30T11:21:45;2.22;;;1.35;;
22160;SDS011;49035;48.812;11.762;2023-07-30T11:24:14;2.35;;;1.35;;
22160;SDS011;49035;48.812;11.762;2023-07-30T11:26:40;2.45;;;1.33;;
22160;SDS011;49035;48.812;11.762;2023-07-30T11:29:18;2.30;;;1.80;;
22160;SDS011;49035;48.812;11.762;2023-07-30T11:31:45;1.50;;;1.35;;
22160;SDS011;49035;48.812;11.762;2023-07-30T11:34:15;2.38;;;1.63;;
22160;SDS011;49035;48.812;11.762;2023-07-30T11:36:43;1.40;;;1.25;;
22160;SDS011;49035;48.812;11.762;2023-07-30T11:39:09;2.38;;;1.10;;
22160;SDS011;49035;48.812;11.762;2023-07-30T11:41:35;1.10;;;1.00;;
22160;SDS011;49035;48.812;11.762;2023-07-30T11:44:01;1.17;;;1.08;;
22160;SDS011;49035;48.812;11.762;2023-07-30T11:46:28;0.93;;;0.80;;
22160;SDS011;49035;48.812;11.762;2023-07-30T11:49:10;2.35;;;0.77;;
22160;SDS011;49035;48.812;11.762;2023-07-30T11:51:37;1.27;;;0.90;;
22160;SDS011;49035;48.812;11.762;2023-07-30T11:54:03;1.13;;;0.80;;
22160;SDS011;49035;48.812;11.762;2023-07-30T11:56:29;1.02;;;0.93;;
22160;SDS011;49035;48.812;11.762;2023-07-30T11:59:04;2.13;;;0.80;;
22160;SDS011;49035;48.812;11.762;2023-07-30T12:01:32;3.97;;;0.98;;
22160;SDS011;49035;48.812;11.762;2023-07-30T12:04:00;1.00;;;0.90;;
22160;SDS011;49035;48.812;11.762;2023-07-30T12:09:12;1.05;;;0.90;;
22160;SDS011;49035;48.812;11.762;2023-07-30T12:11:44;1.13;;;1.00;;
22160;SDS011;49035;48.812;11.762;2023-07-30T12:14:14;1.58;;;0.90;;
22160;SDS011;49035;48.812;11.762;2023-07-30T12:16:40;2.40;;;1.13;;
22160;SDS011;49035;48.812;11.762;2023-07-30T12:19:06;1.88;;;1.20;;
22160;SDS011;49035;48.812;11.762;2023-07-30T12:21:32;1.58;;;1.38;;
22160;SDS011;49035;48.812;11.762;2023-07-30T12:23:57;2.17;;;1.05;;
22160;SDS011;49035;48.812;11.762;2023-07-30T12:26:23;1.95;;;1.05;;
22160;SDS011;49035;48.812;11.762;2023-07-30T12:28:49;1.67;;;1.17;;
22160;SDS011;49035;48.812;11.762;2023-07-30T12:31:14;1.52;;;1.10;;
22160;SDS011;49035;48.812;11.762;2023-07-30T12:33:40;1.73;;;0.80;;
22160;SDS011;49035;48.812;11.762;2023-07-30T12:36:05;2.05;;;1.23;;
22160;SDS011;49035;48.812;11.762;2023-07-30T12:38:31;4.40;;;0.98;;
22160;SDS011;49035;48.812;11.762;2023-07-30T12:40:57;1.20;;;1.02;;
22160;SDS011;49035;48.812;11.762;2023-07-30T12:43:22;1.42;;;1.10;;
22160;SDS011;49035;48.812;11.762;2023-07-30T12:45:48;1.13;;;1.02;;
22160;SDS011;49035;48.812;11.762;2023-07-30T12:48:14;1.65;;;1.20;;
22160;SDS011;49035;48.812;11.762;2023-07-30T12:50:39;2.17;;;1.10;;
22160;SDS011;49035;48.812;11.762;2023-07-30T12:53:05;4.78;;;1.30;;
22160;SDS011;49035;48.812;11.762;2023-07-30T12:55:31;1.45;;;1.27;;
22160;SDS011;49035;48.812;11.762;2023-07-30T12:57:56;3.30;;;1.20;;
22160;SDS011;49035;48.812;11.762;2023-07-30T13:00:22;1.70;;;1.20;;
22160;SDS011;49035;48.812;11.762;2023-07-30T13:02:47;1.20;;;1.10;;
22160;SDS011;49035;48.812;11.762;2023-07-30T13:05:13;4.63;;;1.52;;
22160;SDS011;49035;48.812;11.762;2023-07-30T13:07:40;4.82;;;1.40;;
22160;SDS011;49035;48.812;11.762;2023-07-30T13:10:06;1.52;;;1.20;;
22160;SDS011;49035;48.812;11.762;2023-07-30T13:12:33;3.05;;;1.48;;
22160;SDS011;49035;48.812;11.762;2023-07-30T13:15:00;2.75;;;1.30;;
22160;SDS011;49035;48.812;11.762;2023-07-30T13:17:26;3.70;;;1.40;;
22160;SDS011;49035;48.812;11.762;2023-07-30T13:19:52;1.17;;;1.08;;
22160;SDS011;49035;48.812;11.762;2023-07-30T13:22:18;1.95;;;1.27;;
22160;SDS011;49035;48.812;11.762;2023-07-30T13:24:43;1.48;;;1.33;;
22160;SDS011;49035;48.812;11.762;2023-07-30T13:27:09;2.35;;;1.30;;
22160;SDS011;49035;48.812;11.762;2023-07-30T13:29:35;1.80;;;1.48;;
22160;SDS011;49035;48.812;11.762;2023-07-30T13:32:01;1.42;;;1.30;;
22160;SDS011;49035;48.812;11.762;2023-07-30T13:34:26;2.20;;;1.25;;
22160;SDS011;49035;48.812;11.762;2023-07-30T13:36:52;3.63;;;1.58;;
22160;SDS011;49035;48.812;11.762;2023-07-30T13:39:18;1.13;;;0.95;;
22160;SDS011;49035;48.812;11.762;2023-07-30T13:41:43;2.03;;;1.35;;
22160;SDS011;49035;48.812;11.762;2023-07-30T13:44:09;2.03;;;1.60;;
22160;SDS011;49035;48.812;11.762;2023-07-30T13:46:36;1.80;;;1.20;;
22160;SDS011;49035;48.812;11.762;2023-07-30T13:49:02;4.93;;;1.55;;
22160;SDS011;49035;48.812;11.762;2023-07-30T13:51:27;3.13;;;1.40;;
22160;SDS011;49035;48.812;11.762;2023-07-30T13:53:57;3.30;;;1.63;;
22160;SDS011;49035;48.812;11.762;2023-07-30T13:56:24;1.38;;;1.10;;
22160;SDS011;49035;48.812;11.762;2023-07-30T13:58:50;1.95;;;1.48;;
22160;SDS011;49035;48.812;11.762;2023-07-30T14:01:15;2.88;;;1.90;;
22160;SDS011;49035;48.812;11.762;2023-07-30T14:03:42;4.57;;;1.35;;
22160;SDS011;49035;48.812;11.762;2023-07-30T14:06:09;2.38;;;1.65;;
22160;SDS011;49035;48.812;11.762;2023-07-30T14:08:34;5.70;;;1.60;;
22160;SDS011;49035;48.812;11.762;2023-07-30T14:11:00;4.82;;;1.58;;
22160;SDS011;49035;48.812;11.762;2023-07-30T14:13:26;3.10;;;1.83;;
22160;SDS011;49035;48.812;11.762;2023-07-30T14:15:51;3.47;;;1.73;;
22160;SDS011;49035;48.812;11.762;2023-07-30T14:18:17;2.35;;;1.40;;
22160;SDS011;49035;48.812;11.762;2023-07-30T14:20:43;1.52;;;1.30;;
22160;SDS011;49035;48.812;11.762;2023-07-30T14:23:08;2.38;;;1.58;;
22160;SDS011;49035;48.812;11.762;2023-07-30T14:25:34;2.25;;;1.60;;
22160;SDS011;49035;48.812;11.762;2023-07-30T14:28:00;1.52;;;1.25;;
22160;SDS011;49035;48.812;11.762;2023-07-30T14:30:26;1.90;;;1.63;;
22160;SDS011;49035;48.812;11.762;2023-07-30T14:32:52;4.00;;;1.63;;
22160;SDS011;49035;48.812;11.762;2023-07-30T14:35:17;3.63;;;1.63;;
22160;SDS011;49035;48.812;11.762;2023-07-30T14:37:43;3.05;;;1.77;;